sensor_id;sensor_type;location;lat;lon;timestamp;pressure;altitude;pressure_sealevel;temperature;humidity
16355;BME280;8287;51.644;8.494;2023-10-09T00:01:07;100780.66;;;15.65;96.12
16355;BME280;8287;51.644;8.494;2023-10-09T00:03:40;100781.44;;;15.65;95.10
16355;BME280;8287;51.644;8.494;2023-10-09T00:06:08;100775.31;;;15.65;95.58
16355;BME280;8287;51.644;8.494;2023-10-09T00:08:35;100764.31;;;15.66;96.62
16355;BME280;8287;51.644;8.494;2023-10-09T00:11:04;100761.91;;;15.73;97.66
16355;BME280;8287;51.644;8.494;2023-10-09T00:13:42;100748.31;;;15.78;98.39
16355;BME280;8287;51.644;8.494;2023-10-09T00:16:21;100740.69;;;15.89;99.67
16355;BME280;8287;51.644;8.494;2023-10-09T00:19:00;100736.59;;;16.03;99.25
16355;BME280;8287;51.644;8.494;2023-10-09T00:21:40;100738.22;;;16.16;98.62
16355;BME280;8287;51.644;8.494;2023-10-09T00:24:06;100739.78;;;16.29;99.07
16355;BME280;8287;51.644;8.494;2023-10-09T00:26:39;100744.75;;;16.39;98.85
16355;BME280;8287;51.644;8.494;2023-10-09T00:29:10;100737.31;;;16.45;98.95
16355;BME280;8287;51.644;8.494;2023-10-09T00:31:43;100739.75;;;16.50;99.35
16355;BME280;8287;51.644;8.494;2023-10-09T00:34:16;100741.66;;;16.61;99.12
16355;BME280;8287;51.644;8.494;2023-10-09T00:36:45;100735.66;;;16.64;98.61
16355;BME280;8287;51.644;8.494;2023-10-09T00:39:16;100735.97;;;16.74;99.05
16355;BME280;8287;51.644;8.494;2023-10-09T00:41:59;100734.06;;;16.87;98.31
16355;BME280;8287;51.644;8.494;2023-10-09T00:44:28;100725.94;;;16.95;98.42
16355;BME280;8287;51.644;8.494;2023-10-09T00:47:06;100720.22;;;16.97;98.91
16355;BME280;8287;51.644;8.494;2023-10-09T00:49:47;100702.16;;;17.06;98.86
16355;BME280;8287;51.644;8.494;2023-10-09T00:52:15;100700.03;;;17.11;98.11
16355;BME280;8287;51.644;8.494;2023-10-09T00:54:49;100709.72;;;17.16;98.34
16355;BME280;8287;51.644;8.494;2023-10-09T00:57:18;100713.63;;;17.18;98.16
16355;BME280;8287;51.644;8.494;2023-10-09T00:59:53;100702.22;;;17.21;97.88
16355;BME280;8287;51.644;8.494;2023-10-09T01:02:27;100692.06;;;17.27;97.09
16355;BME280;8287;51.644;8.494;2023-10-09T01:05:03;100683.44;;;17.33;97.10
16355;BME280;8287;51.644;8.494;2023-10-09T01:07:45;100661.81;;;17.38;96.63
16355;BME280;8287;51.644;8.494;2023-10-09T01:10:12;100665.34;;;17.42;96.35
16355;BME280;8287;51.644;8.494;2023-10-09T01:13:00;100672.31;;;17.43;96.56
16355;BME280;8287;51.644;8.494;2023-10-09T01:15:27;100672.38;;;17.47;96.28
16355;BME280;8287;51.644;8.494;2023-10-09T01:18:10;100667.91;;;17.51;95.66
16355;BME280;8287;51.644;8.494;2023-10-09T01:20:38;100665.00;;;17.56;95.56
16355;BME280;8287;51.644;8.494;2023-10-09T01:23:12;100665.16;;;17.63;95.22
16355;BME280;8287;51.644;8.494;2023-10-09T01:25:39;100668.38;;;17.68;94.47
16355;BME280;8287;51.644;8.494;2023-10-09T01:28:15;100665.16;;;17.63;94.94
16355;BME280;8287;51.644;8.494;2023-10-09T01:30:42;100674.41;;;17.65;94.65
16355;BME280;8287;51.644;8.494;2023-10-09T01:33:09;100658.66;;;17.64;94.63
16355;BME280;8287;51.644;8.494;2023-10-09T01:35:48;100665.03;;;17.71;94.36
16355;BME280;8287;51.644;8.494;2023-10-09T01:38:18;100660.63;;;17.79;93.40
16355;BME280;8287;51.644;8.494;2023-10-09T01:40:56;100660.00;;;17.70;94.30
16355;BME280;8287;51.644;8.494;2023-10-09T01:43:29;100657.66;;;17.68;94.41
16355;BME280;8287;51.644;8.494;2023-10-09T01:45:57;100660.00;;;17.70;94.26
16355;BME280;8287;51.644;8.494;2023-10-09T01:48:26;100658.19;;;17.74;94.24
16355;BME280;8287;51.644;8.494;2023-10-09T01:50:53;100668.66;;;17.79;94.34
16355;BME280;8287;51.644;8.494;2023-10-09T01:53:21;100666.69;;;17.91;93.52
16355;BME280;8287;51.644;8.494;2023-10-09T01:55:53;100665.94;;;17.91;93.52
16355;BME280;8287;51.644;8.494;2023-10-09T01:58:20;100679.00;;;18.08;93.16
16355;BME280;8287;51.644;8.494;2023-10-09T02:00:53;100663.09;;;18.15;93.07
16355;BME280;8287;51.644;8.494;2023-10-09T02:03:21;100675.00;;;18.17;93.03
16355;BME280;8287;51.644;8.494;2023-10-09T02:05:50;100679.22;;;18.30;92.78
16355;BME280;8287;51.644;8.494;2023-10-09T02:08:18;100676.97;;;18.32;92.62
16355;BME280;8287;51.644;8.494;2023-10-09T02:10:48;100675.50;;;18.35;92.81
16355;BME280;8287;51.644;8.494;2023-10-09T02:13:15;100674.34;;;18.51;92.40
16355;BME280;8287;51.644;8.494;2023-10-09T02:15:43;100667.16;;;18.55;92.06
16355;BME280;8287;51.644;8.494;2023-10-09T02:18:24;100669.31;;;18.65;92.09
16355;BME280;8287;51.644;8.494;2023-10-09T02:21:06;100667.56;;;18.73;91.66
16355;BME280;8287;51.644;8.494;2023-10-09T02:23:39;100660.78;;;18.79;90.99
16355;BME280;8287;51.644;8.494;2023-10-09T02:26:13;100652.91;;;18.86;91.19
16355;BME280;8287;51.644;8.494;2023-10-09T02:28:45;100655.41;;;18.94;90.68
16355;BME280;8287;51.644;8.494;2023-10-09T02:31:18;100656.25;;;18.98;90.40
16355;BME280;8287;51.644;8.494;2023-10-09T02:33:47;100658.28;;;19.05;90.25
16355;BME280;8287;51.644;8.494;2023-10-09T02:36:18;100653.78;;;19.09;90.08
16355;BME280;8287;51.644;8.494;2023-10-09T02:38:45;100640.44;;;19.12;89.89
16355;BME280;8287;51.644;8.494;2023-10-09T02:41:15;100648.56;;;19.16;89.74
16355;BME280;8287;51.644;8.494;2023-10-09T02:43:46;100644.38;;;19.18;89.25
16355;BME280;8287;51.644;8.494;2023-10-09T02:46:13;100645.59;;;19.21;89.20
16355;BME280;8287;51.644;8.494;2023-10-09T02:48:43;100655.28;;;19.25;88.92
16355;BME280;8287;51.644;8.494;2023-10-09T02:51:13;100646.88;;;19.27;88.54
16355;BME280;8287;51.644;8.494;2023-10-09T02:53:47;100643.47;;;19.30;88.91
16355;BME280;8287;51.644;8.494;2023-10-09T02:56:18;100641.50;;;19.27;89.08
16355;BME280;8287;51.644;8.494;2023-10-09T02:58:49;100635.16;;;19.35;88.16
16355;BME280;8287;51.644;8.494;2023-10-09T03:01:16;100631.31;;;19.36;87.96
16355;BME280;8287;51.644;8.494;2023-10-09T03:03:42;100635.16;;;19.35;88.04
16355;BME280;8287;51.644;8.494;2023-10-09T03:06:12;100624.88;;;19.40;87.30
16355;BME280;8287;51.644;8.494;2023-10-09T03:08:39;100642.50;;;19.38;87.52
16355;BME280;8287;51.644;8.494;2023-10-09T03:11:07;100642.72;;;19.48;86.75
16355;BME280;8287;51.644;8.494;2023-10-09T03:13:41;100644.19;;;19.46;86.64
16355;BME280;8287;51.644;8.494;2023-10-09T03:16:10;100639.22;;;19.48;85.96
16355;BME280;8287;51.644;8.494;2023-10-09T03:18:44;100645.47;;;19.52;85.81
16355;BME280;8287;51.644;8.494;2023-10-09T03:21:12;100652.75;;;19.51;85.88
16355;BME280;8287;51.644;8.494;2023-10-09T03:23:39;100633.22;;;19.54;85.85
16355;BME280;8287;51.644;8.494;2023-10-09T03:26:06;100627.47;;;19.56;85.79
16355;BME280;8287;51.644;8.494;2023-10-09T03:28:33;100632.78;;;19.52;86.24
16355;BME280;8287;51.644;8.494;2023-10-09T03:31:02;100610.94;;;19.54;86.09
16355;BME280;8287;51.644;8.494;2023-10-09T03:33:31;100626.66;;;19.52;86.17
16355;BME280;8287;51.644;8.494;2023-10-09T03:35:58;100609.03;;;19.54;86.02
16355;BME280;8287;51.644;8.494;2023-10-09T03:38:25;100605.97;;;19.56;86.10
16355;BME280;8287;51.644;8.494;2023-10-09T03:40:54;100606.34;;;19.54;86.12
16355;BME280;8287;51.644;8.494;2023-10-09T03:43:21;100596.72;;;19.53;85.90
16355;BME280;8287;51.644;8.494;2023-10-09T03:45:48;100595.66;;;19.58;85.63
16355;BME280;8287;51.644;8.494;2023-10-09T03:48:19;100603.00;;;19.61;85.51
16355;BME280;8287;51.644;8.494;2023-10-09T03:50:48;100598.44;;;19.65;85.32
16355;BME280;8287;51.644;8.494;2023-10-09T03:53:20;100592.66;;;19.63;85.12
16355;BME280;8287;51.644;8.494;2023-10-09T03:55:47;100595.00;;;19.64;85.05
16355;BME280;8287;51.644;8.494;2023-10-09T03:58:14;100599.31;;;19.69;84.32
16355;BME280;8287;51.644;8.494;2023-10-09T04:00:44;100591.97;;;19.66;84.53
16355;BME280;8287;51.644;8.494;2023-10-09T04:03:11;100580.84;;;19.67;83.96
16355;BME280;8287;51.644;8.494;2023-10-09T04:05:41;100580.00;;;19.63;83.72
16355;BME280;8287;51.644;8.494;2023-10-09T04:08:09;100576.94;;;19.65;83.80
16355;BME280;8287;51.644;8.494;2023-10-09T04:10:44;100579.00;;;19.71;83.29
16355;BME280;8287;51.644;8.494;2023-10-09T04:13:17;100584.00;;;19.73;83.15
16355;BME280;8287;51.644;8.494;2023-10-09T04:15:49;100568.59;;;19.70;82.94
16355;BME280;8287;51.644;8.494;2023-10-09T04:18:17;100561.66;;;19.69;83.17
16355;BME280;8287;51.644;8.494;2023-10-09T04:20:55;100564.34;;;19.69;82.94
16355;BME280;8287;51.644;8.494;2023-10-09T04:23:44;100560.88;;;19.68;82.89
16355;BME280;8287;51.644;8.494;2023-10-09T04:26:35;100569.72;;;19.69;82.54
16355;BME280;8287;51.644;8.494;2023-10-09T04:29:02;100567.19;;;19.57;82.98
16355;BME280;8287;51.644;8.494;2023-10-09T04:31:29;100573.72;;;19.56;83.36
16355;BME280;8287;51.644;8.494;2023-10-09T04:34:03;100556.16;;;19.39;83.66
16355;BME280;8287;51.644;8.494;2023-10-09T04:36:45;100554.72;;;19.45;83.05
16355;BME280;8287;51.644;8.494;2023-10-09T04:39:15;100555.81;;;19.41;83.09
16355;BME280;8287;51.644;8.494;2023-10-09T04:42:01;100564.06;;;19.32;83.69
16355;BME280;8287;51.644;8.494;2023-10-09T04:44:52;100550.44;;;19.41;83.01
16355;BME280;8287;51.644;8.494;2023-10-09T04:47:36;100549.22;;;19.38;82.67
16355;BME280;8287;51.644;8.494;2023-10-09T04:50:04;100553.47;;;19.39;82.29
16355;BME280;8287;51.644;8.494;2023-10-09T04:52:38;100549.91;;;19.35;82.35
16355;BME280;8287;51.644;8.494;2023-10-09T04:55:19;100556.34;;;19.31;82.65
16355;BME280;8287;51.644;8.494;2023-10-09T04:57:50;100555.19;;;19.28;82.49
16355;BME280;8287;51.644;8.494;2023-10-09T05:00:34;100550.28;;;19.34;81.78
16355;BME280;8287;51.644;8.494;2023-10-09T05:03:20;100546.88;;;19.37;80.89
16355;BME280;8287;51.644;8.494;2023-10-09T05:05:53;100549.22;;;19.38;81.01
16355;BME280;8287;51.644;8.494;2023-10-09T05:08:47;100556.50;;;19.38;80.57
16355;BME280;8287;51.644;8.494;2023-10-09T05:11:14;100557.97;;;19.35;80.84
16355;BME280;8287;51.644;8.494;2023-10-09T05:14:00;100556.28;;;19.46;80.57
16355;BME280;8287;51.644;8.494;2023-10-09T05:16:37;100551.25;;;19.45;80.69
16355;BME280;8287;51.644;8.494;2023-10-09T05:19:20;100550.84;;;19.43;80.49
16355;BME280;8287;51.644;8.494;2023-10-09T05:21:59;100556.16;;;19.39;80.85
16355;BME280;8287;51.644;8.494;2023-10-09T05:24:31;100556.34;;;19.50;80.38
16355;BME280;8287;51.644;8.494;2023-10-09T05:27:09;100552.59;;;19.54;80.10
16355;BME280;8287;51.644;8.494;2023-10-09T05:29:43;100563.69;;;19.53;80.41
16355;BME280;8287;51.644;8.494;2023-10-09T05:32:25;100568.25;;;19.49;80.65
16355;BME280;8287;51.644;8.494;2023-10-09T05:34:55;100587.09;;;19.52;80.58
16355;BME280;8287;51.644;8.494;2023-10-09T05:37:33;100593.00;;;19.61;80.09
16355;BME280;8287;51.644;8.494;2023-10-09T05:40:02;100606.97;;;19.67;79.57
16355;BME280;8287;51.644;8.494;2023-10-09T05:42:47;100608.09;;;19.66;80.04
16355;BME280;8287;51.644;8.494;2023-10-09T05:45:23;100610.34;;;19.64;80.05
16355;BME280;8287;51.644;8.494;2023-10-09T05:48:06;100606.09;;;19.63;80.33
16355;BME280;8287;51.644;8.494;2023-10-09T05:50:53;100613.69;;;19.57;80.63
16355;BME280;8287;51.644;8.494;2023-10-09T05:53:37;100619.41;;;19.56;80.37
16355;BME280;8287;51.644;8.494;2023-10-09T05:56:19;100632.91;;;19.59;80.54
16355;BME280;8287;51.644;8.494;2023-10-09T05:59:08;100634.38;;;19.53;80.85
16355;BME280;8287;51.644;8.494;2023-10-09T06:01:49;100631.31;;;19.55;80.79
16355;BME280;8287;51.644;8.494;2023-10-09T06:04:44;100626.66;;;19.52;81.20
16355;BME280;8287;51.644;8.494;2023-10-09T06:07:20;100632.75;;;19.49;81.38
16355;BME280;8287;51.644;8.494;2023-10-09T06:09:49;100634.28;;;19.50;81.48
16355;BME280;8287;51.644;8.494;2023-10-09T06:12:16;100652.03;;;19.54;81.28
16355;BME280;8287;51.644;8.494;2023-10-09T06:15:15;100648.91;;;19.52;81.40
16355;BME280;8287;51.644;8.494;2023-10-09T06:17:55;100654.59;;;19.47;81.85
16355;BME280;8287;51.644;8.494;2023-10-09T06:20:35;100656.22;;;19.52;81.87
16355;BME280;8287;51.644;8.494;2023-10-09T06:23:34;100658.91;;;19.52;82.18
16355;BME280;8287;51.644;8.494;2023-10-09T06:26:14;100649.56;;;19.46;82.39
16355;BME280;8287;51.644;8.494;2023-10-09T06:28:52;100661.09;;;19.46;83.01
16355;BME280;8287;51.644;8.494;2023-10-09T06:31:40;100646.03;;;19.42;83.22
16355;BME280;8287;51.644;8.494;2023-10-09T06:34:26;100651.84;;;19.44;83.11
16355;BME280;8287;51.644;8.494;2023-10-09T06:37:00;100660.53;;;19.37;83.52
16355;BME280;8287;51.644;8.494;2023-10-09T06:39:42;100671.84;;;19.46;83.25
16355;BME280;8287;51.644;8.494;2023-10-09T06:42:32;100677.91;;;19.43;83.22
16355;BME280;8287;51.644;8.494;2023-10-09T06:45:11;100682.16;;;19.44;83.39
16355;BME280;8287;51.644;8.494;2023-10-09T06:47:42;100686.44;;;19.45;83.51
16355;BME280;8287;51.644;8.494;2023-10-09T06:50:18;100685.72;;;19.48;83.47
16355;BME280;8287;51.644;8.494;2023-10-09T06:53:08;100686.44;;;19.45;84.03
16355;BME280;8287;51.644;8.494;2023-10-09T06:55:46;100690.66;;;19.46;83.84
16355;BME280;8287;51.644;8.494;2023-10-09T06:58:16;100685.28;;;19.46;84.26
16355;BME280;8287;51.644;8.494;2023-10-09T07:00:49;100690.59;;;19.43;84.43
16355;BME280;8287;51.644;8.494;2023-10-09T07:03:40;100676.44;;;19.46;84.09
16355;BME280;8287;51.644;8.494;2023-10-09T07:06:18;100683.28;;;19.43;84.70
16355;BME280;8287;51.644;8.494;2023-10-09T07:08:50;100684.09;;;19.44;84.48
16355;BME280;8287;51.644;8.494;2023-10-09T07:11:39;100683.38;;;19.47;84.39
16355;BME280;8287;51.644;8.494;2023-10-09T07:14:24;100668.72;;;19.44;84.84
16355;BME280;8287;51.644;8.494;2023-10-09T07:17:15;100670.66;;;19.44;84.86
16355;BME280;8287;51.644;8.494;2023-10-09T07:19:48;100675.75;;;19.49;84.66
16355;BME280;8287;51.644;8.494;2023-10-09T07:22:35;100681.53;;;19.51;84.82
16355;BME280;8287;51.644;8.494;2023-10-09T07:25:18;100671.22;;;19.53;84.67
16355;BME280;8287;51.644;8.494;2023-10-09T07:27:57;100669.66;;;19.52;85.15
16355;BME280;8287;51.644;8.494;2023-10-09T07:30:25;100669.34;;;19.57;84.83
16355;BME280;8287;51.644;8.494;2023-10-09T07:33:07;100672.91;;;19.61;84.77
16355;BME280;8287;51.644;8.494;2023-10-09T07:35:44;100668.66;;;19.60;85.22
16355;BME280;8287;51.644;8.494;2023-10-09T07:38:16;100671.91;;;19.69;84.90
16355;BME280;8287;51.644;8.494;2023-10-09T07:40:45;100674.25;;;19.70;85.24
16355;BME280;8287;51.644;8.494;2023-10-09T07:43:21;100671.59;;;19.74;85.41
16355;BME280;8287;51.644;8.494;2023-10-09T07:45:51;100674.72;;;19.76;85.20
16355;BME280;8287;51.644;8.494;2023-10-09T07:48:50;100681.72;;;19.80;85.25
16355;BME280;8287;51.644;8.494;2023-10-09T07:51:18;100685.56;;;19.79;85.20
16355;BME280;8287;51.644;8.494;2023-10-09T07:53:49;100687.19;;;19.84;85.12
16355;BME280;8287;51.644;8.494;2023-10-09T07:56:22;100688.72;;;19.85;85.09
16355;BME280;8287;51.644;8.494;2023-10-09T07:58:49;100694.53;;;19.87;85.28
16355;BME280;8287;51.644;8.494;2023-10-09T08:01:17;100703.38;;;19.87;85.11
16355;BME280;8287;51.644;8.494;2023-10-09T08:03:50;100714.91;;;19.88;84.91
16355;BME280;8287;51.644;8.494;2023-10-09T08:06:27;100715.44;;;19.97;84.99
16355;BME280;8287;51.644;8.494;2023-10-09T08:09:08;100705.00;;;19.92;85.01
16355;BME280;8287;51.644;8.494;2023-10-09T08:11:47;100658.13;;;19.93;85.03
16355;BME280;8287;51.644;8.494;2023-10-09T08:14:31;100658.53;;;19.95;84.88
16355;BME280;8287;51.644;8.494;2023-10-09T08:17:08;100665.94;;;20.01;84.87
16355;BME280;8287;51.644;8.494;2023-10-09T08:19:43;100667.16;;;20.04;84.32
16355;BME280;8287;51.644;8.494;2023-10-09T08:22:24;100669.06;;;20.03;84.26
16355;BME280;8287;51.644;8.494;2023-10-09T08:25:09;100676.94;;;20.12;83.91
16355;BME280;8287;51.644;8.494;2023-10-09T08:27:52;100676.88;;;20.08;83.85
16355;BME280;8287;51.644;8.494;2023-10-09T08:30:21;100675.91;;;20.20;83.65
16355;BME280;8287;51.644;8.494;2023-10-09T08:33:11;100680.16;;;20.21;83.27
16355;BME280;8287;51.644;8.494;2023-10-09T08:35:56;100695.16;;;20.22;83.79
16355;BME280;8287;51.644;8.494;2023-10-09T08:38:29;100682.50;;;20.22;83.30
16355;BME280;8287;51.644;8.494;2023-10-09T08:41:06;100683.25;;;20.23;83.58
16355;BME280;8287;51.644;8.494;2023-10-09T08:43:47;100682.13;;;20.24;83.40
16355;BME280;8287;51.644;8.494;2023-10-09T08:46:18;100669.06;;;20.22;83.71
16355;BME280;8287;51.644;8.494;2023-10-09T08:48:46;100662.69;;;20.11;84.50
16355;BME280;8287;51.644;8.494;2023-10-09T08:51:14;100669.16;;;20.07;84.91
16355;BME280;8287;51.644;8.494;2023-10-09T08:53:42;100675.63;;;20.25;84.08
16355;BME280;8287;51.644;8.494;2023-10-09T08:56:11;100693.00;;;20.31;83.90
16355;BME280;8287;51.644;8.494;2023-10-09T08:58:40;100678.72;;;20.27;84.21
16355;BME280;8287;51.644;8.494;2023-10-09T09:01:07;100692.72;;;20.36;84.17
16355;BME280;8287;51.644;8.494;2023-10-09T09:03:40;100680.00;;;20.33;84.16
16355;BME280;8287;51.644;8.494;2023-10-09T09:06:09;100686.50;;;20.32;84.54
16355;BME280;8287;51.644;8.494;2023-10-09T09:08:37;100693.75;;;20.28;84.83
16355;BME280;8287;51.644;8.494;2023-10-09T09:11:05;100686.41;;;20.25;84.74
16355;BME280;8287;51.644;8.494;2023-10-09T09:13:44;100686.03;;;20.26;84.85
16355;BME280;8287;51.644;8.494;2023-10-09T09:16:16;100697.50;;;20.23;85.28
16355;BME280;8287;51.644;8.494;2023-10-09T09:18:49;100695.09;;;20.18;85.22
16355;BME280;8287;51.644;8.494;2023-10-09T09:21:21;100698.59;;;20.19;85.89
16355;BME280;8287;51.644;8.494;2023-10-09T09:23:57;100688.50;;;20.12;86.23
16355;BME280;8287;51.644;8.494;2023-10-09T09:26:37;100684.94;;;20.08;86.95
16355;BME280;8287;51.644;8.494;2023-10-09T09:29:11;100681.97;;;20.13;86.90
16355;BME280;8287;51.644;8.494;2023-10-09T09:31:37;100663.47;;;20.12;86.66
16355;BME280;8287;51.644;8.494;2023-10-09T09:34:08;100648.53;;;20.14;86.60
16355;BME280;8287;51.644;8.494;2023-10-09T09:36:53;100636.28;;;20.17;86.53
16355;BME280;8287;51.644;8.494;2023-10-09T09:39:25;100633.28;;;20.22;86.20
16355;BME280;8287;51.644;8.494;2023-10-09T09:41:56;100626.47;;;20.28;85.66
16355;BME280;8287;51.644;8.494;2023-10-09T09:44:31;100620.78;;;20.33;85.65
16355;BME280;8287;51.644;8.494;2023-10-09T09:47:00;100619.63;;;20.34;86.41
16355;BME280;8287;51.644;8.494;2023-10-09T09:49:27;100607.00;;;20.38;86.31
16355;BME280;8287;51.644;8.494;2023-10-09T09:52:00;100607.00;;;20.38;86.46
16355;BME280;8287;51.644;8.494;2023-10-09T09:54:36;100609.38;;;20.42;86.19
16355;BME280;8287;51.644;8.494;2023-10-09T09:57:04;100596.06;;;20.53;85.90
16355;BME280;8287;51.644;8.494;2023-10-09T09:59:37;100582.41;;;20.65;84.80
16355;BME280;8287;51.644;8.494;2023-10-09T10:02:18;100586.63;;;20.66;84.79
16355;BME280;8287;51.644;8.494;2023-10-09T10:04:51;100589.47;;;20.76;84.42
16355;BME280;8287;51.644;8.494;2023-10-09T10:07:20;100583.34;;;20.79;84.53
16355;BME280;8287;51.644;8.494;2023-10-09T10:09:49;100580.44;;;20.88;84.19
16355;BME280;8287;51.644;8.494;2023-10-09T10:12:50;100585.13;;;20.94;83.53
16355;BME280;8287;51.644;8.494;2023-10-09T10:15:59;100578.19;;;20.93;84.48
16355;BME280;8287;51.644;8.494;2023-10-09T10:18:31;100573.78;;;21.11;83.93
16355;BME280;8287;51.644;8.494;2023-10-09T10:21:12;100572.63;;;21.12;83.35
16355;BME280;8287;51.644;8.494;2023-10-09T10:23:42;100578.53;;;21.25;82.26
16355;BME280;8287;51.644;8.494;2023-10-09T10:26:23;100579.41;;;21.36;82.40
16355;BME280;8287;51.644;8.494;2023-10-09T10:29:14;100578.78;;;21.46;81.37
16355;BME280;8287;51.644;8.494;2023-10-09T10:31:55;100586.56;;;21.54;81.33
16355;BME280;8287;51.644;8.494;2023-10-09T10:34:22;100588.16;;;21.62;81.01
16355;BME280;8287;51.644;8.494;2023-10-09T10:36:50;100590.88;;;21.62;79.68
16355;BME280;8287;51.644;8.494;2023-10-09T10:39:24;100596.25;;;21.62;79.54
16355;BME280;8287;51.644;8.494;2023-10-09T10:42:09;100598.59;;;21.64;79.84
16355;BME280;8287;51.644;8.494;2023-10-09T10:44:40;100601.41;;;21.71;79.77
16355;BME280;8287;51.644;8.494;2023-10-09T10:47:12;100599.78;;;21.66;80.13
16355;BME280;8287;51.644;8.494;2023-10-09T10:49:50;100612.19;;;21.71;80.52
16355;BME280;8287;51.644;8.494;2023-10-09T10:52:23;100597.09;;;21.66;80.41
16355;BME280;8287;51.644;8.494;2023-10-09T10:55:11;100610.66;;;21.73;80.90
16355;BME280;8287;51.644;8.494;2023-10-09T10:57:45;100606.41;;;21.72;80.28
16355;BME280;8287;51.644;8.494;2023-10-09T11:00:27;100608.75;;;21.74;80.59
16355;BME280;8287;51.644;8.494;2023-10-09T11:03:17;100616.78;;;21.70;81.36
16355;BME280;8287;51.644;8.494;2023-10-09T11:05:54;100609.53;;;21.78;80.67
16355;BME280;8287;51.644;8.494;2023-10-09T11:08:24;100606.81;;;21.74;80.25
16355;BME280;8287;51.644;8.494;2023-10-09T11:11:11;100610.56;;;21.66;79.44
16355;BME280;8287;51.644;8.494;2023-10-09T11:13:42;100612.19;;;21.71;79.81
16355;BME280;8287;51.644;8.494;2023-10-09T11:16:19;100606.69;;;21.64;79.92
16355;BME280;8287;51.644;8.494;2023-10-09T11:18:54;100623.75;;;21.71;80.38
16355;BME280;8287;51.644;8.494;2023-10-09T11:21:22;100623.06;;;21.81;80.37
16355;BME280;8287;51.644;8.494;2023-10-09T11:23:57;100635.88;;;21.88;80.18
16355;BME280;8287;51.644;8.494;2023-10-09T11:26:25;100649.25;;;21.77;79.96
16355;BME280;8287;51.644;8.494;2023-10-09T11:29:09;100665.75;;;21.72;80.62
16355;BME280;8287;51.644;8.494;2023-10-09T11:31:41;100669.28;;;21.76;80.65
16355;BME280;8287;51.644;8.494;2023-10-09T11:34:20;100670.00;;;21.73;81.03
16355;BME280;8287;51.644;8.494;2023-10-09T11:36:55;100666.09;;;21.67;80.42
16355;BME280;8287;51.644;8.494;2023-10-09T11:39:26;100675.31;;;21.66;81.26
16355;BME280;8287;51.644;8.494;2023-10-09T11:42:01;100677.19;;;21.62;81.41
16355;BME280;8287;51.644;8.494;2023-10-09T11:44:38;100671.31;;;21.53;82.26
16355;BME280;8287;51.644;8.494;2023-10-09T11:47:07;100675.16;;;21.52;82.83
16355;BME280;8287;51.644;8.494;2023-10-09T11:49:58;100668.47;;;21.43;82.65
16355;BME280;8287;51.644;8.494;2023-10-09T11:52:56;100672.22;;;21.35;82.59
16355;BME280;8287;51.644;8.494;2023-10-09T11:55:35;100675.81;;;21.42;83.34
16355;BME280;8287;51.644;8.494;2023-10-09T11:58:03;100672.06;;;21.50;83.03
16355;BME280;8287;51.644;8.494;2023-10-09T12:00:33;100674.41;;;21.55;82.88
16355;BME280;8287;51.644;8.494;2023-10-09T12:03:11;100665.91;;;21.53;83.00
16355;BME280;8287;51.644;8.494;2023-10-09T12:05:38;100664.94;;;21.68;82.98
16355;BME280;8287;51.644;8.494;2023-10-09T12:08:09;100673.03;;;21.68;82.18
16355;BME280;8287;51.644;8.494;2023-10-09T12:10:37;100675.31;;;21.66;81.36
16355;BME280;8287;51.644;8.494;2023-10-09T12:13:04;100679.00;;;21.51;81.93
16355;BME280;8287;51.644;8.494;2023-10-09T12:15:32;100678.13;;;21.44;81.67
16355;BME280;8287;51.644;8.494;2023-10-09T12:18:07;100666.44;;;21.33;82.66
16355;BME280;8287;51.644;8.494;2023-10-09T12:20:40;100665.59;;;21.25;83.50
16355;BME280;8287;51.644;8.494;2023-10-09T12:23:06;100685.50;;;21.17;83.02
16355;BME280;8287;51.644;8.494;2023-10-09T12:25:35;100682.84;;;21.21;83.28
16355;BME280;8287;51.644;8.494;2023-10-09T12:28:02;100677.72;;;21.12;83.88
16355;BME280;8287;51.644;8.494;2023-10-09T12:30:29;100677.88;;;21.23;84.22
16355;BME280;8287;51.644;8.494;2023-10-09T12:33:05;100678.69;;;21.27;84.22
16355;BME280;8287;51.644;8.494;2023-10-09T12:35:36;100676.69;;;21.20;84.01
16355;BME280;8287;51.644;8.494;2023-10-09T12:38:03;100664.84;;;21.28;84.05
16355;BME280;8287;51.644;8.494;2023-10-09T12:40:34;100658.34;;;21.33;84.30
16355;BME280;8287;51.644;8.494;2023-10-09T12:43:01;100658.75;;;21.35;83.78
16355;BME280;8287;51.644;8.494;2023-10-09T12:45:28;100651.75;;;21.30;83.66
16355;BME280;8287;51.644;8.494;2023-10-09T12:47:58;100644.81;;;21.29;83.71
16355;BME280;8287;51.644;8.494;2023-10-09T12:50:29;100649.03;;;21.27;84.51
16355;BME280;8287;51.644;8.494;2023-10-09T12:52:59;100644.81;;;21.29;84.21
16355;BME280;8287;51.644;8.494;2023-10-09T12:55:27;100653.22;;;21.24;84.05
16355;BME280;8287;51.644;8.494;2023-10-09T12:58:01;100651.69;;;21.23;84.53
16355;BME280;8287;51.644;8.494;2023-10-09T13:00:32;100655.56;;;21.26;84.09
16355;BME280;8287;51.644;8.494;2023-10-09T13:03:04;100663.94;;;21.17;84.48
16355;BME280;8287;51.644;8.494;2023-10-09T13:05:43;100658.56;;;21.17;84.30
16355;BME280;8287;51.644;8.494;2023-10-09T13:08:18;100657.41;;;21.18;84.83
16355;BME280;8287;51.644;8.494;2023-10-09T13:10:47;100665.03;;;21.13;85.17
16355;BME280;8287;51.644;8.494;2023-10-09T13:13:19;100657.63;;;21.06;85.78
16355;BME280;8287;51.644;8.494;2023-10-09T13:15:46;100663.66;;;20.96;86.14
16355;BME280;8287;51.644;8.494;2023-10-09T13:18:12;100655.63;;;21.00;87.40
16355;BME280;8287;51.644;8.494;2023-10-09T13:20:40;100662.91;;;20.99;87.22
16355;BME280;8287;51.644;8.494;2023-10-09T13:23:08;100658.38;;;21.03;87.03
16355;BME280;8287;51.644;8.494;2023-10-09T13:25:40;100649.94;;;21.05;86.75
16355;BME280;8287;51.644;8.494;2023-10-09T13:28:06;100647.63;;;21.07;86.28
16355;BME280;8287;51.644;8.494;2023-10-09T13:30:37;100649.97;;;21.08;86.48
16355;BME280;8287;51.644;8.494;2023-10-09T13:33:14;100641.88;;;21.08;86.21
16355;BME280;8287;51.644;8.494;2023-10-09T13:35:42;100636.50;;;21.12;85.77
16355;BME280;8287;51.644;8.494;2023-10-09T13:38:17;100641.91;;;21.12;85.50